Saturday, February 24, 2018, 12:09 PM CST
Back to Local

KC09, Morris, Morris Municipal-james R Washburn Field Airport

Location: Morris, IL, United States Lat: 41.425
Local Time: 12:09 PM CST (18:09 GMT) Lon: -88.419
Time Zone: US/Central Elev: 583 ft

Show me the last for .
Show Decoded

2018-02-24 11:35 METAR KC09 241735Z AUTO 07009G14KT 10SM OVC015 05/02 A3001 RMK AO2 T00460023 =
2018-02-24 11:15 METAR KC09 241715Z AUTO 07011KT 10SM OVC015 04/02 A3002 RMK AO2 T00420019 =
2018-02-24 10:55 METAR KC09 241655Z AUTO 08013KT 10SM OVC015 04/02 A3004 RMK AO2 T00400016 =
2018-02-24 10:35 METAR KC09 241635Z AUTO 08014KT 7SM -DZ OVC015 04/02 A3005 RMK AO2 T00380017 =
2018-02-24 10:15 METAR KC09 241615Z AUTO 08012KT 10SM -DZ OVC015 03/01 A3008 RMK AO2 T00340010 =
2018-02-24 09:55 METAR KC09 241555Z AUTO 09013KT 10SM OVC017 03/01 A3010 RMK AO2 T00320007 =
2018-02-24 09:35 METAR KC09 241535Z AUTO 09015KT 10SM BKN017 OVC070 03/01 A3010 RMK AO2 T00320006
                 =
2018-02-24 09:15 METAR KC09 241515Z AUTO 09012KT 10SM SCT017 OVC070 03/00 A3011 RMK AO2 T00270002
                 =
2018-02-24 08:55 METAR KC09 241455Z AUTO 08011G15KT 10SM SCT070 BKN080 OVC090 02/00 A3012 RMK AO2
                 T00201005 =
2018-02-24 08:35 METAR KC09 241435Z AUTO 08011KT 10SM SCT055 BKN070 OVC090 02/00 A3013 RMK AO2
                 T00161005 =
2018-02-24 08:15 METAR KC09 241415Z AUTO 09009KT 10SM SCT075 OVC085 02/M01 A3015 RMK AO2
                 T00151006 =
2018-02-24 07:55 METAR KC09 241355Z AUTO 07009KT 10SM SCT015 BKN080 OVC085 01/M01 A3015 RMK AO2
                 T00141007 =
2018-02-24 07:35 METAR KC09 241335Z AUTO 08008KT 10SM BKN015 OVC080 01/00 A3015 RMK AO2 T00131005
                 =
2018-02-24 07:15 METAR KC09 241315Z AUTO 08010G15KT 10SM OVC013 01/00 A3014 RMK AO2 T00131003 =
2018-02-24 06:55 METAR KC09 241255Z AUTO 07009KT 7SM OVC013 01/00 A3014 RMK AO2 T00120000 =
2018-02-24 06:35 METAR KC09 241235Z AUTO 07006KT 5SM BR OVC013 01/00 A3014 RMK AO2 T00071005 =
2018-02-24 06:15 METAR KC09 241215Z AUTO 07006KT 7SM BKN013 OVC090 01/M01 A3014 RMK AO2 T00061006
                 =
2018-02-24 05:55 METAR KC09 241155Z AUTO 05003KT 7SM OVC090 01/M01 A3016 RMK AO2 T00061007 10006
                 20000 =
2018-02-24 05:35 METAR KC09 241135Z AUTO 06006KT 7SM OVC090 01/M01 A3016 RMK AO2 T00061010 =
2018-02-24 05:15 METAR KC09 241115Z AUTO 06006KT 7SM OVC090 01/M01 A3015 RMK AO2 T00051010 =
2018-02-24 04:55 METAR KC09 241055Z AUTO 05004KT 7SM SCT019 OVC090 01/M01 A3017 RMK AO2 T00051010
                 =
2018-02-24 04:35 METAR KC09 241035Z AUTO 06006KT 7SM OVC019 01/M01 A3017 RMK AO2 T00051011 =
2018-02-24 04:15 METAR KC09 241015Z AUTO 06004KT 7SM OVC019 00/M01 A3019 RMK AO2 T00031011 =
2018-02-24 03:55 METAR KC09 240955Z AUTO 06005KT 7SM BKN019 OVC100 00/M01 A3019 RMK AO2 T00021011
                 =
2018-02-24 03:35 METAR KC09 240935Z AUTO 05004KT 7SM OVC100 00/M01 A3019 RMK AO2 T00001011 =
2018-02-24 03:15 METAR KC09 240915Z AUTO 00000KT 7SM SCT100 00/M01 A3020 RMK AO2 T00001012 =
2018-02-24 02:55 METAR KC09 240855Z AUTO 00000KT 7SM CLR 00/M01 A3020 RMK AO2 T00001011 =
2018-02-24 02:35 METAR KC09 240835Z AUTO 00000KT 7SM CLR 00/M01 A3022 RMK AO2 T00001011 =
2018-02-24 02:15 METAR KC09 240815Z AUTO 00000KT 7SM CLR 00/M01 A3023 RMK AO2 T00021011 =
2018-02-24 01:55 METAR KC09 240755Z AUTO 00000KT 10SM CLR 00/M01 A3023 RMK AO2 T00021011 =
2018-02-24 01:35 METAR KC09 240735Z AUTO 00000KT 10SM CLR 00/M01 A3023 RMK AO2 T00031013 =
2018-02-24 01:15 METAR KC09 240715Z AUTO 03003KT 10SM CLR 00/M01 A3023 RMK AO2 T00031011 =
2018-02-24 00:55 METAR KC09 240655Z AUTO 01005KT 7SM CLR 00/M01 A3021 RMK AO2 T00031010 =
2018-02-24 00:35 METAR KC09 240635Z AUTO 01004KT 7SM CLR 00/M01 A3022 RMK AO2 T00031010 =
2018-02-24 00:15 METAR KC09 240615Z AUTO 36004KT 7SM CLR 00/M01 A3023 RMK AO2 T00031008 =
2018-02-23 23:55 METAR KC09 240555Z AUTO 35004KT 7SM CLR 00/M01 A3025 RMK AO2 T00031007 10032
                 20000 400650000 =
2018-02-23 23:35 METAR KC09 240535Z AUTO 34003KT 7SM CLR 00/M01 A3025 RMK AO2 T00031008 =
2018-02-23 23:15 METAR KC09 240515Z AUTO 33003KT 7SM CLR 00/M01 A3026 RMK AO2 T00031007 =
2018-02-23 22:55 METAR KC09 240455Z AUTO 33003KT 7SM CLR 00/M01 A3026 RMK AO2 T00021006 =
2018-02-23 22:35 METAR KC09 240435Z AUTO 33004KT 7SM CLR 00/00 A3026 RMK AO2 T00021004 =
2018-02-23 22:15 METAR KC09 240415Z AUTO 29004KT 5SM BR CLR 00/00 A3027 RMK AO2 T00001005 =
2018-02-23 21:55 METAR KC09 240355Z AUTO 28003KT 5SM BR CLR 00/00 A3027 RMK AO2 T00001005 =
2018-02-23 21:35 METAR KC09 240335Z AUTO 28004KT 7SM CLR 01/00 A3027 RMK AO2 T00051005 =
2018-02-23 21:10 METAR KC09 240310Z AUTO 28003KT 7SM CLR 01/00 A3027 RMK AO2 T00081001 =
2018-02-23 20:55 METAR KC09 240255Z AUTO 28004KT 10SM CLR 02/00 A3027 RMK AO2 T00150000 =
2018-02-23 20:35 METAR KC09 240235Z AUTO 28004KT 10SM CLR 02/00 A3027 RMK AO2 T00150000 =
2018-02-23 20:15 METAR KC09 240215Z AUTO 29004KT 10SM SCT019 02/00 A3026 RMK AO2 T00190002 =
2018-02-23 19:55 METAR KC09 240155Z AUTO 30003KT 10SM OVC019 02/01 A3025 RMK AO2 T00240009 =
2018-02-23 19:35 METAR KC09 240135Z AUTO 26004KT 10SM OVC019 03/01 A3026 RMK AO2 T00260011 =
2018-02-23 19:15 METAR KC09 240115Z AUTO 25003KT 10SM OVC019 03/01 A3026 RMK AO2 T00270011 =
2018-02-23 18:55 METAR KC09 240055Z AUTO 25003KT 10SM OVC019 03/01 A3026 RMK AO2 T00290012 =
2018-02-23 18:35 METAR KC09 240035Z AUTO 25004KT 10SM OVC019 03/01 A3026 RMK AO2 T00300011 =
2018-02-23 18:15 METAR KC09 240015Z AUTO 24004KT 10SM OVC019 03/01 A3026 RMK AO2 T00300013 =
2018-02-23 17:55 METAR KC09 232355Z AUTO 27005KT 10SM OVC017 03/01 A3026 RMK AO2 T00320010 10038
                 20028 =
2018-02-23 17:35 METAR KC09 232335Z AUTO 26005KT 10SM OVC015 03/01 A3025 RMK AO2 T00330011 =
2018-02-23 17:15 METAR KC09 232315Z AUTO 27007KT 10SM OVC015 03/01 A3025 RMK AO2 T00330010 =
2018-02-23 16:55 METAR KC09 232255Z AUTO 28010KT 10SM OVC015 03/01 A3024 RMK AO2 T00330010 =
2018-02-23 16:35 METAR KC09 232235Z AUTO 28010KT 10SM OVC013 03/01 A3024 RMK AO2 T00320009 =
2018-02-23 16:15 METAR KC09 232215Z AUTO 28011KT 10SM OVC011 03/01 A3023 RMK AO2 T00310010 =
2018-02-23 15:55 METAR KC09 232155Z AUTO 29011KT 10SM OVC011 03/01 A3023 RMK AO2 T00310011 =
2018-02-23 15:35 METAR KC09 232135Z AUTO 27013KT 10SM OVC009 03/01 A3023 RMK AO2 T00300012 =
2018-02-23 15:15 METAR KC09 232115Z AUTO 28012KT 10SM OVC007 03/02 A3023 RMK AO2 T00280015 =
2018-02-23 14:55 METAR KC09 232055Z AUTO 29013KT 10SM OVC007 03/02 A3023 RMK AO2 T00290016 =
2018-02-23 14:35 METAR KC09 232035Z AUTO 28014G17KT 10SM OVC009 03/02 A3023 RMK AO2 T00300017 =
2018-02-23 14:15 METAR KC09 232015Z AUTO 28010KT 10SM OVC009 03/02 A3022 RMK AO2 T00310018 =
2018-02-23 13:55 METAR KC09 231955Z AUTO 28013KT 10SM OVC009 03/02 A3021 RMK AO2 T00310016 =
2018-02-23 13:35 METAR KC09 231935Z AUTO 28012KT 10SM OVC009 03/02 A3021 RMK AO2 T00330018 =
2018-02-23 13:15 METAR KC09 231915Z AUTO 27010KT 10SM OVC009 03/02 A3021 RMK AO2 T00330020 =
2018-02-23 12:55 METAR KC09 231855Z AUTO 27013G19KT 10SM OVC009 03/02 A3021 RMK AO2 T00330020 =
2018-02-23 12:35 METAR KC09 231835Z AUTO 28017G20KT 10SM OVC009 04/02 A3021 RMK AO2 T00350018 =
2018-02-23 12:15 METAR KC09 231815Z AUTO 27015KT 10SM OVC009 04/02 A3021 RMK AO2 T00360019 =

Support USWX by starting your Amazon purchase here.